Terminal Aerodrome Forecast
Issued by NWS

Home | Current Version | Previous Version | Text Only | Print | Product List | Glossary On
Versions: 1 2 3 4 5 6 7 8 9 10 11 12 13 14 15 16 17 18 19 20 21 22 23 24 25 26 27 28 29 30 31 32 33 34 35 36 37 38 39 40 41 42
000
FTUS45 KGJT 211735
TAFMTJ
TAF
KMTJ 211735Z 2118/2218 31006KT P6SM VCSH SCT050 OVC060
      TEMPO 2118/2121 3SM -SHSNRA OVC030
     FM220000 29008KT P6SM -SHSN OVC035
     FM220200 29010G15KT P6SM VCSH OVC020
     FM220800 17006KT P6SM VCSH BKN045
     FM221200 18005KT P6SM BKN250=

USA.gov is the U.S. government's official web portal to all federal, state and local government web resources and services.